Time;durP1;ratioP1;P1;durP2;ratioP2;P2;SDS_P1;SDS_P2;PMS_P1;PMS_P2;Temp;Humidity;BMP_temperature;BMP_pressure;BME280_temperature;BME280_humidity;BME280_pressure;Samples;Min_cycle;Max_cycle;Signal;HPM_P1;HPM_P2
2021/09/16 00:00:30;;;;;;;13.43;11.98;;;;;;;;;;5097593;28;20021;-77
2021/09/16 00:02:56;;;;;;;11.85;10.57;;;;;;;;;;5097482;28;20058;-77
2021/09/16 00:05:22;;;;;;;12.25;11.10;;;;;;;;;;5097541;28;20039;-78
2021/09/16 00:07:48;;;;;;;11.23;10.23;;;;;;;;;;5097075;28;20480;-78
2021/09/16 00:10:15;;;;;;;12.55;11.43;;;;;;;;;;5097313;28;20031;-77
2021/09/16 00:12:41;;;;;;;13.05;11.77;;;;;;;;;;5097669;28;20382;-77
2021/09/16 00:15:07;;;;;;;13.77;12.00;;;;;;;;;;5097365;28;20035;-77
2021/09/16 00:17:33;;;;;;;12.55;11.23;;;;;;;;;;5097404;28;20030;-77
2021/09/16 00:19:59;;;;;;;12.40;11.10;;;;;;;;;;5096875;28;20024;-78
2021/09/16 00:22:25;;;;;;;14.25;11.75;;;;;;;;;;5096700;28;20020;-78
2021/09/16 00:24:51;;;;;;;12.98;11.77;;;;;;;;;;5097089;28;20416;-78
2021/09/16 00:27:17;;;;;;;12.55;11.45;;;;;;;;;;5096738;28;20107;-77
2021/09/16 00:29:44;;;;;;;12.85;11.57;;;;;;;;;;5096882;28;20078;-78
2021/09/16 00:32:10;;;;;;;12.23;11.02;;;;;;;;;;5096563;28;20056;-77
2021/09/16 00:34:37;;;;;;;13.88;12.45;;;;;;;;;;5096729;28;20035;-77
2021/09/16 00:37:03;;;;;;;13.38;12.07;;;;;;;;;;5096379;28;20093;-78
2021/09/16 00:39:29;;;;;;;13.77;12.30;;;;;;;;;;5096521;28;20601;-77
2021/09/16 00:41:55;;;;;;;12.30;11.20;;;;;;;;;;5096687;28;20107;-78
2021/09/16 00:44:21;;;;;;;12.02;10.82;;;;;;;;;;5096899;28;20094;-77
2021/09/16 00:46:47;;;;;;;12.50;11.23;;;;;;;;;;5096303;28;20035;-78
2021/09/16 00:49:13;;;;;;;12.45;11.25;;;;;;;;;;5096574;28;20038;-77
2021/09/16 00:51:39;;;;;;;12.60;10.90;;;;;;;;;;5096249;28;20028;-78
2021/09/16 00:54:05;;;;;;;12.43;11.23;;;;;;;;;;5096231;28;20080;-78
2021/09/16 00:56:32;;;;;;;12.75;11.65;;;;;;;;;;5095942;28;20047;-78
2021/09/16 00:58:58;;;;;;;12.15;11.05;;;;;;;;;;5096204;28;20031;-77
2021/09/16 01:01:24;;;;;;;11.75;10.70;;;;;;;;;;5096442;28;20108;-77
2021/09/16 01:03:50;;;;;;;11.88;10.75;;;;;;;;;;5096099;28;20024;-84
2021/09/16 01:06:16;;;;;;;12.98;11.77;;;;;;;;;;5096183;28;20032;-79
2021/09/16 01:08:42;;;;;;;12.90;11.82;;;;;;;;;;5095915;28;20462;-77
2021/09/16 01:11:08;;;;;;;13.27;10.85;;;;;;;;;;5096186;28;20411;-78
2021/09/16 01:13:35;;;;;;;13.32;12.00;;;;;;;;;;5096150;28;20027;-77
2021/09/16 01:16:01;;;;;;;13.55;10.85;;;;;;;;;;5095748;28;20028;-78
2021/09/16 01:18:27;;;;;;;12.23;11.05;;;;;;;;;;5095786;28;20029;-78
2021/09/16 01:20:54;;;;;;;12.63;11.45;;;;;;;;;;5095834;28;20032;-79
2021/09/16 01:23:23;;;;;;;11.85;10.65;;;;;;;;;;5095849;28;20091;-78
2021/09/16 01:25:49;;;;;;;12.50;11.32;;;;;;;;;;5095966;28;20035;-78
2021/09/16 01:28:15;;;;;;;12.20;10.98;;;;;;;;;;5095640;28;20024;-78
2021/09/16 01:30:41;;;;;;;13.65;12.23;;;;;;;;;;5095473;28;20026;-77
2021/09/16 01:33:07;;;;;;;12.98;11.50;;;;;;;;;;5095795;28;20077;-77
2021/09/16 01:35:35;;;;;;;13.48;11.52;;;;;;;;;;5095441;28;20135;-78
2021/09/16 01:38:01;;;;;;;11.23;10.07;;;;;;;;;;5095340;28;20125;-78
2021/09/16 01:40:27;;;;;;;12.10;11.07;;;;;;;;;;5095203;28;20020;-78
2021/09/16 01:42:53;;;;;;;11.63;10.63;;;;;;;;;;5095400;28;20027;-77
2021/09/16 01:45:20;;;;;;;12.10;10.82;;;;;;;;;;5095737;28;20039;-77
2021/09/16 01:47:46;;;;;;;11.43;10.48;;;;;;;;;;5095426;28;20122;-77
2021/09/16 01:50:13;;;;;;;11.05;10.05;;;;;;;;;;5094602;28;20035;-79
2021/09/16 01:52:39;;;;;;;12.57;11.35;;;;;;;;;;5095567;28;20029;-77
2021/09/16 01:55:05;;;;;;;11.52;10.63;;;;;;;;;;5094840;28;20066;-77
2021/09/16 01:57:31;;;;;;;14.35;11.25;;;;;;;;;;5095399;28;20050;-77
2021/09/16 01:59:57;;;;;;;11.98;10.88;;;;;;;;;;5094867;28;20020;-77
2021/09/16 02:02:24;;;;;;;12.85;11.60;;;;;;;;;;5095087;28;20032;-77
2021/09/16 02:04:50;;;;;;;14.20;10.25;;;;;;;;;;5095134;28;20020;-80
2021/09/16 02:07:16;;;;;;;11.48;10.27;;;;;;;;;;5094934;28;20028;-77
2021/09/16 02:09:42;;;;;;;11.85;10.57;;;;;;;;;;5095160;28;20028;-78
2021/09/16 02:12:08;;;;;;;11.90;10.98;;;;;;;;;;5094632;28;20507;-77
2021/09/16 02:14:34;;;;;;;12.68;11.48;;;;;;;;;;5095313;28;20020;-78
2021/09/16 02:17:00;;;;;;;11.77;10.73;;;;;;;;;;5095066;28;20043;-77
2021/09/16 02:19:26;;;;;;;12.00;10.85;;;;;;;;;;5094608;28;20024;-78
2021/09/16 02:21:52;;;;;;;11.75;10.65;;;;;;;;;;5094502;28;20463;-78
2021/09/16 02:24:18;;;;;;;10.95;10.02;;;;;;;;;;5094590;28;20053;-77
2021/09/16 02:26:44;;;;;;;11.70;10.43;;;;;;;;;;5094601;28;20024;-77
2021/09/16 02:29:11;;;;;;;11.00;9.73;;;;;;;;;;5094637;28;20035;-77
2021/09/16 02:31:37;;;;;;;11.65;10.40;;;;;;;;;;5094290;28;20473;-77
2021/09/16 02:34:03;;;;;;;12.55;11.35;;;;;;;;;;5094402;28;20038;-78
2021/09/16 02:36:29;;;;;;;11.93;10.73;;;;;;;;;;5094156;28;20081;-78
2021/09/16 02:38:55;;;;;;;12.15;11.05;;;;;;;;;;5094383;28;20477;-77
2021/09/16 02:41:21;;;;;;;10.63;9.68;;;;;;;;;;5094411;28;20030;-77
2021/09/16 02:43:47;;;;;;;13.65;11.38;;;;;;;;;;5094669;28;20020;-77
2021/09/16 02:46:13;;;;;;;17.30;11.60;;;;;;;;;;5094077;28;20032;-77
2021/09/16 02:48:39;;;;;;;11.88;10.82;;;;;;;;;;5094254;28;20492;-77
2021/09/16 02:51:05;;;;;;;13.45;12.18;;;;;;;;;;5093677;28;20056;-76
2021/09/16 02:53:32;;;;;;;13.13;11.20;;;;;;;;;;5094213;28;20028;-77
2021/09/16 02:55:58;;;;;;;14.35;12.88;;;;;;;;;;5093749;28;20112;-77
2021/09/16 02:58:24;;;;;;;12.13;10.85;;;;;;;;;;5094297;28;20059;-77
2021/09/16 03:00:50;;;;;;;12.07;10.98;;;;;;;;;;5094254;28;20039;-77
2021/09/16 03:03:16;;;;;;;11.00;9.93;;;;;;;;;;5094256;28;20055;-78
2021/09/16 03:05:42;;;;;;;11.70;10.50;;;;;;;;;;5094205;28;20028;-77
2021/09/16 03:08:08;;;;;;;15.75;11.18;;;;;;;;;;5093864;28;20021;-77
2021/09/16 03:10:34;;;;;;;11.93;10.82;;;;;;;;;;5094542;28;20029;-77
2021/09/16 03:13:00;;;;;;;16.83;12.45;;;;;;;;;;5094426;28;20024;-77
2021/09/16 03:15:26;;;;;;;17.05;11.60;;;;;;;;;;5094272;28;20093;-77
2021/09/16 03:17:52;;;;;;;17.85;13.13;;;;;;;;;;5093859;28;20029;-78
2021/09/16 03:20:18;;;;;;;26.77;15.13;;;;;;;;;;5093884;28;20020;-77
2021/09/16 03:22:44;;;;;;;24.83;15.63;;;;;;;;;;5093973;28;20123;-77
2021/09/16 03:25:11;;;;;;;32.35;16.38;;;;;;;;;;5094046;28;20067;-79
2021/09/16 03:27:38;;;;;;;32.22;17.98;;;;;;;;;;5093096;28;20024;-77
2021/09/16 03:30:05;;;;;;;21.95;15.32;;;;;;;;;;5092914;28;20024;-79
2021/09/16 03:32:31;;;;;;;19.85;13.00;;;;;;;;;;5094054;28;20046;-77
2021/09/16 03:34:57;;;;;;;23.27;13.90;;;;;;;;;;5093715;28;20581;-77
2021/09/16 03:37:23;;;;;;;26.50;15.63;;;;;;;;;;5093875;28;20024;-77
2021/09/16 03:39:49;;;;;;;18.95;14.10;;;;;;;;;;5094084;28;20051;-77
2021/09/16 03:42:15;;;;;;;23.42;14.60;;;;;;;;;;5093803;28;20032;-77
2021/09/16 03:44:41;;;;;;;17.63;13.40;;;;;;;;;;5094177;28;20031;-77
2021/09/16 03:47:08;;;;;;;22.75;15.45;;;;;;;;;;5094111;28;20028;-77
2021/09/16 03:49:38;;;;;;;17.65;13.60;;;;;;;;;;5093844;28;20020;-78
2021/09/16 03:52:04;;;;;;;20.13;15.20;;;;;;;;;;5093800;28;20020;-77
2021/09/16 03:54:30;;;;;;;15.95;13.70;;;;;;;;;;5094144;28;20470;-77
2021/09/16 03:56:56;;;;;;;23.13;14.15;;;;;;;;;;5093320;28;20056;-77
2021/09/16 03:59:22;;;;;;;19.23;12.98;;;;;;;;;;5093976;28;20036;-77
2021/09/16 04:01:49;;;;;;;17.95;13.10;;;;;;;;;;5093646;28;20031;-77
2021/09/16 04:04:15;;;;;;;18.73;12.80;;;;;;;;;;5096361;28;20027;-77
2021/09/16 04:06:41;;;;;;;23.27;14.30;;;;;;;;;;5097339;28;20385;-77
2021/09/16 04:09:07;;;;;;;18.85;14.38;;;;;;;;;;5097323;28;20099;-77
2021/09/16 04:11:33;;;;;;;14.45;12.68;;;;;;;;;;5097213;28;20017;-77
2021/09/16 04:13:59;;;;;;;20.27;13.35;;;;;;;;;;5096959;28;20044;-77
2021/09/16 04:16:25;;;;;;;15.13;12.63;;;;;;;;;;5097264;28;20032;-77
2021/09/16 04:18:51;;;;;;;15.10;11.90;;;;;;;;;;5096989;28;20031;-77
2021/09/16 04:21:17;;;;;;;14.23;12.82;;;;;;;;;;5097393;28;20047;-76
2021/09/16 04:23:43;;;;;;;12.82;11.48;;;;;;;;;;5096921;28;20024;-75
2021/09/16 04:26:09;;;;;;;14.02;12.32;;;;;;;;;;5096911;28;20489;-75
2021/09/16 04:28:35;;;;;;;17.42;13.02;;;;;;;;;;5096811;28;20020;-75
2021/09/16 04:31:02;;;;;;;16.45;11.93;;;;;;;;;;5096758;28;20059;-75
2021/09/16 04:33:28;;;;;;;17.00;11.38;;;;;;;;;;5096520;28;20016;-76
2021/09/16 04:35:54;;;;;;;12.30;10.27;;;;;;;;;;5095515;28;20040;-78
2021/09/16 04:38:20;;;;;;;13.20;11.80;;;;;;;;;;5097183;28;20024;-78
2021/09/16 04:40:46;;;;;;;17.90;14.43;;;;;;;;;;5096346;28;20028;-75
2021/09/16 04:43:12;;;;;;;14.45;12.40;;;;;;;;;;5096219;28;20024;-75
2021/09/16 04:45:38;;;;;;;19.05;12.27;;;;;;;;;;5096031;28;20375;-83
2021/09/16 04:48:04;;;;;;;13.38;11.98;;;;;;;;;;5095913;28;20020;-75
2021/09/16 04:50:30;;;;;;;11.45;10.35;;;;;;;;;;5096441;28;20024;-80
2021/09/16 04:52:56;;;;;;;18.05;11.95;;;;;;;;;;5095624;28;20020;-74
2021/09/16 04:55:23;;;;;;;12.05;11.05;;;;;;;;;;5096111;28;20468;-75
2021/09/16 04:57:49;;;;;;;11.90;10.70;;;;;;;;;;5096209;28;20020;-76
2021/09/16 05:00:15;;;;;;;14.40;12.80;;;;;;;;;;5095955;28;20055;-79
2021/09/16 05:02:41;;;;;;;14.73;11.02;;;;;;;;;;5095922;28;20031;-79
2021/09/16 05:05:08;;;;;;;18.42;11.07;;;;;;;;;;5095929;28;20020;-77
2021/09/16 05:07:34;;;;;;;16.52;10.60;;;;;;;;;;5096313;28;20031;-80
2021/09/16 05:10:00;;;;;;;11.52;10.38;;;;;;;;;;5095627;28;20020;-80
2021/09/16 05:12:27;;;;;;;16.33;11.35;;;;;;;;;;5096305;28;20025;-76
2021/09/16 05:14:53;;;;;;;17.92;11.02;;;;;;;;;;5095930;28;20407;-76
2021/09/16 05:17:19;;;;;;;18.40;12.55;;;;;;;;;;5094982;28;20024;-76
2021/09/16 05:19:45;;;;;;;19.38;11.90;;;;;;;;;;5095975;28;20035;-78
2021/09/16 05:22:11;;;;;;;17.13;12.00;;;;;;;;;;5095131;28;20028;-78
2021/09/16 05:24:37;;;;;;;18.58;12.88;;;;;;;;;;5095622;28;20028;-78
2021/09/16 05:27:03;;;;;;;15.30;10.93;;;;;;;;;;5095935;28;20027;-77
2021/09/16 05:29:29;;;;;;;20.92;15.05;;;;;;;;;;5095441;28;20025;-78
2021/09/16 05:31:55;;;;;;;20.60;13.98;;;;;;;;;;5094899;28;20034;-79
2021/09/16 05:34:22;;;;;;;20.52;13.50;;;;;;;;;;5095179;28;20028;-78
2021/09/16 05:36:48;;;;;;;16.45;13.18;;;;;;;;;;5095603;28;20036;-77
2021/09/16 05:39:14;;;;;;;22.38;15.68;;;;;;;;;;5095626;28;20032;-78
2021/09/16 05:41:40;;;;;;;23.65;14.07;;;;;;;;;;5095535;28;20028;-78
2021/09/16 05:44:06;;;;;;;16.77;13.07;;;;;;;;;;5095394;28;20031;-78
2021/09/16 05:46:32;;;;;;;15.00;11.85;;;;;;;;;;5095359;28;20032;-79
2021/09/16 05:48:58;;;;;;;15.73;13.48;;;;;;;;;;5095745;28;20024;-78
2021/09/16 05:51:24;;;;;;;15.63;12.50;;;;;;;;;;5095164;28;20020;-77
2021/09/16 05:53:50;;;;;;;23.92;14.93;;;;;;;;;;5095198;28;20496;-80
2021/09/16 05:56:16;;;;;;;13.95;11.23;;;;;;;;;;5095273;28;20048;-78
2021/09/16 05:58:42;;;;;;;15.07;13.55;;;;;;;;;;5095291;28;20365;-77
2021/09/16 06:01:09;;;;;;;15.00;13.35;;;;;;;;;;5095045;28;20027;-78
2021/09/16 06:03:35;;;;;;;13.65;12.00;;;;;;;;;;5095191;28;20028;-77
2021/09/16 06:06:01;;;;;;;12.20;11.05;;;;;;;;;;5094908;28;20380;-78
2021/09/16 06:08:27;;;;;;;15.23;12.80;;;;;;;;;;5095269;28;20024;-78
2021/09/16 06:10:53;;;;;;;17.05;13.27;;;;;;;;;;5095088;28;20120;-77
2021/09/16 06:13:19;;;;;;;14.82;12.02;;;;;;;;;;5095133;28;20020;-78
2021/09/16 06:15:45;;;;;;;19.15;12.52;;;;;;;;;;5094735;28;20055;-79
2021/09/16 06:18:11;;;;;;;12.88;11.52;;;;;;;;;;5093955;28;20026;-82
2021/09/16 06:20:37;;;;;;;11.25;10.20;;;;;;;;;;5095634;28;20539;-85
2021/09/16 06:23:03;;;;;;;13.25;11.95;;;;;;;;;;5096788;28;20020;-77
2021/09/16 06:25:30;;;;;;;14.45;11.68;;;;;;;;;;5094197;28;20032;-82
2021/09/16 06:27:56;;;;;;;15.70;12.40;;;;;;;;;;5096135;28;20024;-82
2021/09/16 06:30:23;;;;;;;13.10;11.68;;;;;;;;;;5096766;28;20351;-79
2021/09/16 06:32:49;;;;;;;12.25;11.15;;;;;;;;;;5097781;28;20114;-84
2021/09/16 06:35:15;;;;;;;14.25;11.40;;;;;;;;;;5096296;28;20027;-79
2021/09/16 06:37:41;;;;;;;12.25;10.25;;;;;;;;;;5094013;28;20024;-79
2021/09/16 06:40:08;;;;;;;13.93;12.35;;;;;;;;;;5098386;28;20024;-82
2021/09/16 06:42:34;;;;;;;12.25;10.70;;;;;;;;;;5097370;28;20081;-79
2021/09/16 06:45:00;;;;;;;13.45;10.57;;;;;;;;;;5098590;28;20470;-83
2021/09/16 06:47:26;;;;;;;16.05;12.05;;;;;;;;;;5098368;28;20032;-79
2021/09/16 06:49:52;;;;;;;15.20;12.75;;;;;;;;;;5098305;28;20046;-80
2021/09/16 06:52:22;;;;;;;14.68;11.88;;;;;;;;;;5095652;28;20373;-78
2021/09/16 06:54:48;;;;;;;13.73;12.38;;;;;;;;;;5094897;28;20468;-85
2021/09/16 06:57:14;;;;;;;12.93;11.52;;;;;;;;;;5096203;28;20043;-79
2021/09/16 06:59:40;;;;;;;13.02;11.82;;;;;;;;;;5094766;28;20107;-83
2021/09/16 07:02:06;;;;;;;11.90;10.75;;;;;;;;;;5094084;28;20064;-76
2021/09/16 07:04:32;;;;;;;13.27;11.35;;;;;;;;;;5094267;28;20481;-80
2021/09/16 07:07:03;;;;;;;17.70;11.45;;;;;;;;;;5094074;28;20099;-78
2021/09/16 07:09:30;;;;;;;12.73;10.77;;;;;;;;;;5092142;28;20024;-77
2021/09/16 07:11:56;;;;;;;12.48;11.38;;;;;;;;;;5092508;28;20034;-74
2021/09/16 07:14:24;;;;;;;13.27;11.32;;;;;;;;;;5092747;28;20020;-77
2021/09/16 07:16:50;;;;;;;13.23;11.20;;;;;;;;;;5093226;28;20431;-75
2021/09/16 07:19:17;;;;;;;12.55;11.32;;;;;;;;;;5093936;28;20023;-83
2021/09/16 07:21:43;;;;;;;12.73;11.35;;;;;;;;;;5093425;28;20032;-77
2021/09/16 07:24:09;;;;;;;11.65;10.63;;;;;;;;;;5091434;28;20028;-78
2021/09/16 07:26:35;;;;;;;11.80;10.70;;;;;;;;;;5092777;28;20103;-76
2021/09/16 07:29:02;;;;;;;11.45;10.30;;;;;;;;;;5092572;28;20034;-77
2021/09/16 07:31:28;;;;;;;11.55;10.55;;;;;;;;;;5092736;28;20017;-76
2021/09/16 07:33:54;;;;;;;12.93;11.63;;;;;;;;;;5092471;28;20493;-76
2021/09/16 07:36:20;;;;;;;12.27;10.90;;;;;;;;;;5092849;28;20423;-82
2021/09/16 07:38:47;;;;;;;13.95;11.05;;;;;;;;;;5096613;28;20020;-80
2021/09/16 07:41:13;;;;;;;14.10;9.60;;;;;;;;;;5097956;28;20099;-80
2021/09/16 07:43:39;;;;;;;13.32;10.82;;;;;;;;;;5097296;28;20115;-84
2021/09/16 07:46:05;;;;;;;13.18;11.88;;;;;;;;;;5096725;28;20027;-75
2021/09/16 07:48:31;;;;;;;12.43;10.57;;;;;;;;;;5096022;28;20062;-75
2021/09/16 07:50:57;;;;;;;11.77;10.52;;;;;;;;;;5096025;28;20420;-76
2021/09/16 07:53:24;;;;;;;14.90;10.40;;;;;;;;;;5096061;28;20056;-75
2021/09/16 07:55:50;;;;;;;15.43;11.50;;;;;;;;;;5095588;28;20397;-76
2021/09/16 07:58:16;;;;;;;18.27;11.48;;;;;;;;;;5096054;28;20086;-76
2021/09/16 08:00:42;;;;;;;13.68;10.77;;;;;;;;;;5096146;28;20040;-76
2021/09/16 08:03:08;;;;;;;16.10;11.27;;;;;;;;;;5095927;28;20016;-75
2021/09/16 08:05:34;;;;;;;11.40;10.32;;;;;;;;;;5095801;28;20650;-77
2021/09/16 08:08:00;;;;;;;12.38;11.18;;;;;;;;;;5095937;28;20107;-79
2021/09/16 08:10:26;;;;;;;13.07;11.80;;;;;;;;;;5096530;28;20016;-78
2021/09/16 08:12:52;;;;;;;11.90;10.73;;;;;;;;;;5097221;28;20020;-78
2021/09/16 08:15:18;;;;;;;11.60;10.43;;;;;;;;;;5098492;28;20378;-80
2021/09/16 08:17:45;;;;;;;11.68;10.65;;;;;;;;;;5097647;28;20021;-81
2021/09/16 08:20:11;;;;;;;12.77;11.48;;;;;;;;;;5098213;28;20035;-78
2021/09/16 08:22:37;;;;;;;33.53;12.93;;;;;;;;;;5098064;28;20099;-79
2021/09/16 08:25:05;;;;;;;13.95;12.65;;;;;;;;;;5097214;28;20039;-76
2021/09/16 08:27:32;;;;;;;13.80;12.05;;;;;;;;;;5096706;28;20031;-77
2021/09/16 08:29:58;;;;;;;15.90;14.38;;;;;;;;;;5096518;28;20024;-76
2021/09/16 08:32:25;;;;;;;15.15;13.75;;;;;;;;;;5096921;28;20110;-78
2021/09/16 08:34:51;;;;;;;15.30;13.80;;;;;;;;;;5096594;28;20020;-77
2021/09/16 08:37:17;;;;;;;15.02;13.63;;;;;;;;;;5096286;28;20127;-78
2021/09/16 08:39:43;;;;;;;16.13;14.70;;;;;;;;;;5096308;28;20366;-76
2021/09/16 08:42:09;;;;;;;16.90;15.30;;;;;;;;;;5095517;28;20016;-76
2021/09/16 08:44:35;;;;;;;17.02;15.63;;;;;;;;;;5095760;28;20028;-76
2021/09/16 08:47:02;;;;;;;19.35;17.42;;;;;;;;;;5096161;28;20122;-79
2021/09/16 08:49:28;;;;;;;20.05;18.10;;;;;;;;;;5095267;28;20027;-79
2021/09/16 08:51:54;;;;;;;21.27;19.08;;;;;;;;;;5095588;28;20035;-74
2021/09/16 08:54:20;;;;;;;23.20;18.20;;;;;;;;;;5095555;28;20024;-74
2021/09/16 08:56:46;;;;;;;19.88;17.55;;;;;;;;;;5095559;28;20051;-74
2021/09/16 08:59:12;;;;;;;21.10;17.38;;;;;;;;;;5095172;28;20556;-74
2021/09/16 09:01:38;;;;;;;24.67;17.42;;;;;;;;;;5095491;28;20035;-74
2021/09/16 09:04:04;;;;;;;22.30;16.35;;;;;;;;;;5095045;28;20105;-74
2021/09/16 09:06:34;;;;;;;25.10;15.77;;;;;;;;;;5094971;28;20024;-74
2021/09/16 09:09:20;;;;;;;22.90;14.02;;;;;;;;;;5094868;28;20046;-75
2021/09/16 09:12:03;;;;;;;23.52;15.40;;;;;;;;;;5094256;28;20036;-74
2021/09/16 09:14:32;;;;;;;18.00;11.43;;;;;;;;;;5095222;28;20024;-74
2021/09/16 09:16:59;;;;;;;18.35;13.85;;;;;;;;;;5094604;28;20038;-73
2021/09/16 09:19:26;;;;;;;14.95;13.63;;;;;;;;;;5094720;28;20127;-75
2021/09/16 09:21:52;;;;;;;14.95;12.55;;;;;;;;;;5093782;28;20355;-74
2021/09/16 09:24:34;;;;;;;14.55;12.73;;;;;;;;;;5094604;28;20028;-74
2021/09/16 09:27:00;;;;;;;13.75;12.50;;;;;;;;;;5094919;28;20020;-75
2021/09/16 09:29:26;;;;;;;22.10;12.93;;;;;;;;;;5094684;28;20441;-73
2021/09/16 09:31:54;;;;;;;14.32;12.93;;;;;;;;;;5094529;28;20077;-74
2021/09/16 09:34:36;;;;;;;36.08;17.45;;;;;;;;;;5094796;28;20021;-73
2021/09/16 09:37:02;;;;;;;;;;;;;;;;;;5096621;28;20039;-75
2021/09/16 09:39:28;;;;;;;17.10;13.70;;;;;;;;;;5094674;28;20277;-74
2021/09/16 09:41:54;;;;;;;19.58;13.82;;;;;;;;;;5094431;28;20027;-75
2021/09/16 09:44:20;;;;;;;22.33;15.80;;;;;;;;;;5094839;28;20024;-74
2021/09/16 09:46:50;;;;;;;19.17;15.95;;;;;;;;;;5096168;28;20034;-74
2021/09/16 09:49:21;;;;;;;18.95;13.50;;;;;;;;;;5094319;28;20111;-74
2021/09/16 09:51:49;;;;;;;17.65;13.88;;;;;;;;;;5094902;28;20032;-75
2021/09/16 09:54:16;;;;;;;17.38;14.50;;;;;;;;;;5095137;28;20030;-75
2021/09/16 09:56:54;;;;;;;24.95;15.55;;;;;;;;;;5094945;28;20052;-74
2021/09/16 09:59:20;;;;;;;17.90;14.77;;;;;;;;;;5096082;28;20020;-77
2021/09/16 10:01:46;;;;;;;18.30;13.07;;;;;;;;;;5095382;28;20089;-74
2021/09/16 10:04:28;;;;;;;14.88;13.48;;;;;;;;;;5094140;28;20111;-75
2021/09/16 10:06:55;;;;;;;26.92;14.40;;;;;;;;;;5094651;28;20090;-74
2021/09/16 10:09:21;;;;;;;15.07;11.93;;;;;;;;;;5093938;28;20024;-75
2021/09/16 10:11:49;;;;;;;15.48;13.80;;;;;;;;;;5093547;28;20673;-74
2021/09/16 10:14:15;;;;;;;16.08;13.55;;;;;;;;;;5094188;28;20016;-75
2021/09/16 10:16:41;;;;;;;15.88;12.93;;;;;;;;;;5095375;28;20055;-78
2021/09/16 10:19:07;;;;;;;13.68;12.27;;;;;;;;;;5096229;28;20055;-76
2021/09/16 10:21:33;;;;;;;12.00;11.02;;;;;;;;;;5094339;28;20140;-72
2021/09/16 10:24:00;;;;;;;13.02;11.75;;;;;;;;;;5093902;28;20486;-75
2021/09/16 10:26:35;;;;;;;13.40;11.15;;;;;;;;;;5094146;28;20034;-73
2021/09/16 10:29:01;;;;;;;22.70;12.93;;;;;;;;;;5093237;28;20031;-73
2021/09/16 10:31:27;;;;;;;11.85;10.70;;;;;;;;;;5093108;28;20097;-73
2021/09/16 10:33:53;;;;;;;11.35;10.35;;;;;;;;;;5092935;28;20054;-73
2021/09/16 10:36:19;;;;;;;21.35;10.80;;;;;;;;;;5093402;28;20582;-73
2021/09/16 10:38:47;;;;;;;18.80;9.82;;;;;;;;;;5093666;28;20031;-74
2021/09/16 10:41:29;;;;;;;12.23;10.38;;;;;;;;;;5093563;28;20028;-73
2021/09/16 10:44:15;;;;;;;11.38;10.27;;;;;;;;;;5093642;28;20028;-72
2021/09/16 10:46:42;;;;;;;10.63;9.52;;;;;;;;;;5093014;28;20028;-72
2021/09/16 10:49:28;;;;;;;18.20;8.98;;;;;;;;;;5093210;28;20082;-74
2021/09/16 10:51:55;;;;;;;13.43;9.55;;;;;;;;;;5093138;28;20068;-72
2021/09/16 10:54:41;;;;;;;10.48;9.48;;;;;;;;;;5093400;28;20407;-72
2021/09/16 10:57:09;;;;;;;15.50;10.60;;;;;;;;;;5092502;28;20050;-73
2021/09/16 10:59:55;;;;;;;11.80;10.05;;;;;;;;;;5093535;28;20103;-74
2021/09/16 11:02:43;;;;;;;11.38;10.10;;;;;;;;;;5093616;28;20020;-75
2021/09/16 11:05:12;;;;;;;8.95;8.18;;;;;;;;;;5094107;28;20028;-76
2021/09/16 11:07:52;;;;;;;11.27;8.43;;;;;;;;;;5093864;28;20111;-74
2021/09/16 11:10:38;;;;;;;13.65;9.52;;;;;;;;;;5093651;28;20043;-74
2021/09/16 11:13:25;;;;;;;12.73;11.45;;;;;;;;;;5095949;28;20038;-74
2021/09/16 11:15:53;;;;;;;10.68;9.10;;;;;;;;;;5096757;28;20051;-74
2021/09/16 11:18:21;;;;;;;12.45;9.75;;;;;;;;;;5097050;28;20028;-74
2021/09/16 11:20:47;;;;;;;12.68;9.18;;;;;;;;;;5097276;28;20024;-78
2021/09/16 11:23:13;;;;;;;17.13;9.43;;;;;;;;;;5098606;28;20099;-81
2021/09/16 11:25:40;;;;;;;11.95;10.15;;;;;;;;;;5099073;28;20528;-75
2021/09/16 11:28:07;;;;;;;14.18;10.63;;;;;;;;;;5097270;28;20020;-76
2021/09/16 11:30:34;;;;;;;11.13;9.45;;;;;;;;;;5096936;28;20020;-75
2021/09/16 11:33:04;;;;;;;15.70;10.25;;;;;;;;;;5097409;28;20024;-75
2021/09/16 11:35:30;;;;;;;11.40;10.35;;;;;;;;;;5097204;28;20035;-75
2021/09/16 11:37:56;;;;;;;12.88;9.43;;;;;;;;;;5096969;28;20027;-75
2021/09/16 11:40:23;;;;;;;11.75;10.45;;;;;;;;;;5097612;28;20496;-75
2021/09/16 11:42:50;;;;;;;15.45;10.65;;;;;;;;;;5097074;28;20385;-75
2021/09/16 11:45:17;;;;;;;10.30;9.38;;;;;;;;;;5097323;28;20453;-75
2021/09/16 11:47:46;;;;;;;10.55;9.52;;;;;;;;;;5097070;28;20028;-74
2021/09/16 11:50:21;;;;;;;14.10;9.80;;;;;;;;;;5096611;28;20027;-73
2021/09/16 11:52:47;;;;;;;12.15;8.68;;;;;;;;;;5097489;28;20459;-72
2021/09/16 11:55:14;;;;;;;12.40;9.50;;;;;;;;;;5096924;28;20082;-73
2021/09/16 11:58:00;;;;;;;9.70;8.85;;;;;;;;;;5096808;28;20039;-72
2021/09/16 12:00:28;;;;;;;10.38;8.43;;;;;;;;;;5095954;28;20017;-73
2021/09/16 12:02:54;;;;;;;13.18;9.48;;;;;;;;;;5096469;28;20471;-72
2021/09/16 12:05:40;;;;;;;10.63;9.60;;;;;;;;;;5097302;28;20020;-73
2021/09/16 12:08:09;;;;;;;9.35;8.45;;;;;;;;;;5095307;28;20089;-73
2021/09/16 12:10:36;;;;;;;12.05;10.52;;;;;;;;;;5096257;28;20031;-73
2021/09/16 12:13:02;;;;;;;12.18;10.48;;;;;;;;;;5095379;28;20024;-74
2021/09/16 12:15:29;;;;;;;12.00;9.20;;;;;;;;;;5095930;28;20028;-74
2021/09/16 12:17:55;;;;;;;11.63;8.95;;;;;;;;;;5096035;28;20024;-75
2021/09/16 12:20:21;;;;;;;13.85;11.35;;;;;;;;;;5096325;28;20024;-77
2021/09/16 12:22:47;;;;;;;18.73;10.20;;;;;;;;;;5096424;28;20084;-75
2021/09/16 12:25:13;;;;;;;11.40;10.00;;;;;;;;;;5096216;28;20069;-78
2021/09/16 12:27:39;;;;;;;11.90;10.52;;;;;;;;;;5096774;28;20025;-77
2021/09/16 12:30:13;;;;;;;18.65;10.38;;;;;;;;;;5096160;28;20035;-75
2021/09/16 12:32:39;;;;;;;13.48;9.80;;;;;;;;;;5097411;28;20020;-78
2021/09/16 12:35:20;;;;;;;16.13;9.98;;;;;;;;;;5097033;28;20028;-76
2021/09/16 12:37:46;;;;;;;11.40;9.65;;;;;;;;;;5096683;28;20032;-81
2021/09/16 12:40:27;;;;;;;12.07;9.32;;;;;;;;;;5096540;28;20048;-78
2021/09/16 12:43:03;;;;;;;11.68;10.18;;;;;;;;;;5096604;28;20023;-78
2021/09/16 12:45:30;;;;;;;11.77;10.52;;;;;;;;;;5096481;28;20452;-78
2021/09/16 12:47:57;;;;;;;16.50;11.20;;;;;;;;;;5096483;28;20024;-78
2021/09/16 12:50:23;;;;;;;12.43;9.95;;;;;;;;;;5096471;28;20447;-78
2021/09/16 12:52:49;;;;;;;11.50;10.13;;;;;;;;;;5096627;28;20476;-78
2021/09/16 12:55:15;;;;;;;10.18;9.27;;;;;;;;;;5095845;28;20120;-78
2021/09/16 12:57:43;;;;;;;10.15;9.27;;;;;;;;;;5096265;28;20024;-79
2021/09/16 13:00:10;;;;;;;12.25;11.10;;;;;;;;;;5096379;28;20024;-79
2021/09/16 13:02:52;;;;;;;12.60;10.68;;;;;;;;;;5096416;28;20024;-78
2021/09/16 13:05:26;;;;;;;19.02;9.68;;;;;;;;;;5095934;28;20095;-86
2021/09/16 13:08:12;;;;;;;11.57;10.23;;;;;;;;;;5097770;28;20054;-86
2021/09/16 13:10:39;;;;;;;11.25;10.20;;;;;;;;;;5097686;28;20066;-81
2021/09/16 13:13:07;;;;;;;10.27;9.20;;;;;;;;;;5097812;28;20016;-82
2021/09/16 13:15:34;;;;;;;14.63;10.75;;;;;;;;;;5097019;28;20381;-84
2021/09/16 13:18:00;;;;;;;11.55;10.35;;;;;;;;;;5098671;28;20020;-80
2021/09/16 13:20:26;;;;;;;10.75;8.70;;;;;;;;;;5097903;28;20562;-82
2021/09/16 13:22:53;;;;;;;10.18;8.82;;;;;;;;;;5098172;28;20032;-81
2021/09/16 13:25:19;;;;;;;10.70;9.63;;;;;;;;;;5098316;28;20080;-80
2021/09/16 13:27:45;;;;;;;10.75;9.80;;;;;;;;;;5098708;28;20073;-83
2021/09/16 13:30:11;;;;;;;10.20;8.80;;;;;;;;;;5098589;28;20032;-82
2021/09/16 13:32:37;;;;;;;14.57;10.48;;;;;;;;;;5098522;28;20024;-80
2021/09/16 13:35:04;;;;;;;16.35;10.88;;;;;;;;;;5097931;28;20110;-82
2021/09/16 13:37:30;;;;;;;11.68;10.00;;;;;;;;;;5097610;28;20489;-83
2021/09/16 13:39:56;;;;;;;11.52;9.98;;;;;;;;;;5098786;28;20032;-82
2021/09/16 13:42:22;;;;;;;14.40;9.85;;;;;;;;;;5097986;28;20048;-80
2021/09/16 13:44:48;;;;;;;10.48;9.57;;;;;;;;;;5098594;28;20024;-85
2021/09/16 13:47:14;;;;;;;11.13;9.93;;;;;;;;;;5097933;28;20043;-81
2021/09/16 13:49:40;;;;;;;14.57;10.68;;;;;;;;;;5097830;28;20051;-83
2021/09/16 13:52:06;;;;;;;10.38;8.73;;;;;;;;;;5097431;28;20493;-89
2021/09/16 13:54:32;;;;;;;8.77;8.07;;;;;;;;;;5097238;28;20028;-78
2021/09/16 13:56:58;;;;;;;19.92;10.98;;;;;;;;;;5097251;28;20052;-83
2021/09/16 13:59:25;;;;;;;11.70;10.70;;;;;;;;;;5097514;28;20039;-83
2021/09/16 14:01:51;;;;;;;10.52;9.50;;;;;;;;;;5097038;28;20024;-85
2021/09/16 14:04:17;;;;;;;13.60;10.10;;;;;;;;;;5097470;28;20052;-82
2021/09/16 14:06:43;;;;;;;15.68;9.43;;;;;;;;;;5097015;28;20484;-78
2021/09/16 14:09:09;;;;;;;8.70;7.90;;;;;;;;;;5097615;28;20020;-80
2021/09/16 14:11:35;;;;;;;10.77;7.55;;;;;;;;;;5096807;28;20020;-83
2021/09/16 14:14:01;;;;;;;10.13;8.32;;;;;;;;;;5096760;28;20020;-79
2021/09/16 14:16:27;;;;;;;10.45;9.43;;;;;;;;;;5097110;28;20430;-84
2021/09/16 14:18:53;;;;;;;11.48;9.00;;;;;;;;;;5097241;28;20047;-81